Benwood, West Virginia
Current Conditions -  °F | °C
As of 11:53 PM on Saturday 22 Nov 2014 (Local Time) from KHLG Reporting Station
Clear Clear  
Wind Chill: 50°   Ceiling: Unl
Heat Index: 50°   Visibility: 10mi
Dew Point: 27°   Wind: 10mph
Humidity: 41%   Direction: 210°SSW
Pressure: 30.09"   Gusts: NA
Location:  40.02°N, 80.73°W
Report Text: KHLG 230453Z AUTO 21009KT 10SM CLR 10/M03 A3009 RMK AO2 RAB03E13 SLP197 P0000 T01001028 401111067
Loading
Personal Weather Stations






























Interactive Weather Map New forecast layout! Learn more

10-Day Weather Forecast

Advertisements
Track Severe Weather on mobile